Time;durP1;ratioP1;P1;durP2;ratioP2;P2;SDS_P1;SDS_P2;PMS_P1;PMS_P2;Temp;Humidity;BMP_temperature;BMP_pressure;BME280_temperature;BME280_humidity;BME280_pressure;Samples;Min_cycle;Max_cycle;Signal;HPM_P1;HPM_P2
2023/10/21 00:02:23;;;;;;;9.63;4.75;;;;;;;10.91;100.00;98288.31;5038294;28;20091;-75
2023/10/21 00:04:48;;;;;;;12.82;4.75;;;;;;;10.90;100.00;98294.72;5043048;28;20071;-75
2023/10/21 00:07:14;;;;;;;9.38;4.45;;;;;;;10.87;100.00;98298.69;5046991;28;20037;-75
2023/10/21 00:09:40;;;;;;;11.63;5.25;;;;;;;10.85;100.00;98292.03;5060501;28;20060;-75
2023/10/21 00:12:08;;;;;;;13.02;5.07;;;;;;;10.82;100.00;98293.34;5062109;28;20647;-75
2023/10/21 00:14:34;;;;;;;10.90;4.82;;;;;;;10.84;100.00;98298.41;5044567;28;20032;-75
2023/10/21 00:16:59;;;;;;;9.52;4.55;;;;;;;10.80;100.00;98300.81;5049570;28;20025;-75
2023/10/21 00:19:25;;;;;;;9.32;4.85;;;;;;;10.83;100.00;98308.28;5058003;28;20071;-76
2023/10/21 00:21:50;;;;;;;10.80;5.10;;;;;;;10.82;100.00;98312.00;5054438;28;20503;-75
2023/10/21 00:24:15;;;;;;;10.23;5.30;;;;;;;10.81;100.00;98309.59;5062122;28;20107;-75
2023/10/21 00:26:47;;;;;;;12.50;4.85;;;;;;;10.77;100.00;98313.84;5043880;28;20403;-75
2023/10/21 00:29:16;;;;;;;14.52;6.28;;;;;;;10.78;100.00;98320.78;5046295;28;20037;-76
2023/10/21 00:31:43;;;;;;;12.55;5.40;;;;;;;10.77;100.00;98313.84;5066050;28;20025;-75
2023/10/21 00:34:08;;;;;;;12.63;5.28;;;;;;;10.78;100.00;98334.13;5053608;28;20461;-75
2023/10/21 00:36:34;;;;;;;12.57;5.47;;;;;;;10.81;100.00;98339.72;5065194;28;20080;-75
2023/10/21 00:38:59;;;;;;;11.10;5.13;;;;;;;10.77;100.00;98337.81;5069395;28;20671;-75
2023/10/21 00:41:24;;;;;;;12.50;5.25;;;;;;;10.80;100.00;98348.78;5019127;28;20740;-75
2023/10/21 00:43:50;;;;;;;15.55;5.80;;;;;;;10.78;100.00;98352.78;5066019;28;20039;-75
2023/10/21 00:46:17;;;;;;;10.25;5.40;;;;;;;10.78;100.00;98358.91;5059362;28;20032;-75
2023/10/21 00:48:44;;;;;;;10.40;5.55;;;;;;;10.77;100.00;98362.66;5037607;28;20928;-75
2023/10/21 00:51:10;;;;;;;11.80;5.90;;;;;;;10.77;100.00;98361.81;5067718;28;20536;-75
2023/10/21 00:53:36;;;;;;;12.50;4.90;;;;;;;10.77;100.00;98370.66;5054467;28;20430;-75
2023/10/21 00:56:02;;;;;;;13.32;5.18;;;;;;;10.78;100.00;98369.56;5053763;28;20450;-75
2023/10/21 00:58:30;;;;;;;13.38;5.72;;;;;;;10.73;100.00;98354.34;5068330;28;20483;-75
2023/10/21 01:00:57;;;;;;;11.50;4.43;;;;;;;10.82;100.00;98377.84;5060303;28;20422;-75
2023/10/21 01:03:26;;;;;;;7.13;4.28;;;;;;;10.82;100.00;98380.50;5072365;28;20032;-75
2023/10/21 01:05:52;;;;;;;11.75;5.45;;;;;;;10.79;100.00;98367.69;5050551;28;20020;-75
2023/10/21 01:08:17;;;;;;;11.05;4.75;;;;;;;10.82;100.00;98388.50;5061294;28;20032;-75
2023/10/21 01:10:43;;;;;;;13.55;5.05;;;;;;;10.82;100.00;98385.84;5072080;28;20102;-75
2023/10/21 01:13:08;;;;;;;12.48;5.10;;;;;;;10.82;100.00;98394.66;5065697;28;20057;-76
2023/10/21 01:15:33;;;;;;;14.45;6.32;;;;;;;10.81;100.00;98401.03;5052453;28;20082;-75
2023/10/21 01:17:59;;;;;;;11.40;5.72;;;;;;;10.82;100.00;98402.66;5056673;28;20526;-75
2023/10/21 01:20:25;;;;;;;10.10;4.97;;;;;;;10.82;100.00;98404.50;5053336;28;20033;-75
2023/10/21 01:22:50;;;;;;;9.52;4.35;;;;;;;10.80;100.00;98394.13;5052859;28;20036;-75
2023/10/21 01:25:15;;;;;;;9.90;4.85;;;;;;;10.82;100.00;98401.84;5034871;28;20859;-75
2023/10/21 01:27:41;;;;;;;11.25;4.95;;;;;;;10.80;100.00;98403.97;5045472;28;20048;-75
2023/10/21 01:30:06;;;;;;;13.25;5.82;;;;;;;10.80;100.00;98402.13;5058932;28;20021;-75
2023/10/21 01:32:32;;;;;;;9.57;5.00;;;;;;;10.80;100.00;98398.66;5067960;28;20068;-75
2023/10/21 01:34:58;;;;;;;12.60;5.63;;;;;;;10.84;100.00;98407.72;5064896;28;20538;-75
2023/10/21 01:37:23;;;;;;;11.27;5.20;;;;;;;10.86;100.00;98413.59;5042686;28;20036;-75
2023/10/21 01:39:49;;;;;;;9.68;5.10;;;;;;;10.80;100.00;98396.78;5069959;28;20070;-75
2023/10/21 01:42:14;;;;;;;10.60;4.88;;;;;;;10.83;100.00;98400.78;5056667;28;20032;-75
2023/10/21 01:44:40;;;;;;;12.23;5.75;;;;;;;10.89;100.00;98410.41;5063692;28;20048;-75
2023/10/21 01:47:06;;;;;;;11.10;4.95;;;;;;;10.89;100.00;98411.22;5067991;28;20075;-75
2023/10/21 01:49:31;;;;;;;12.93;5.07;;;;;;;10.92;100.00;98418.69;5065295;28;20056;-75
2023/10/21 01:51:57;;;;;;;11.95;5.80;;;;;;;10.92;100.00;98421.34;5071371;28;20040;-75
2023/10/21 01:54:23;;;;;;;14.50;5.60;;;;;;;10.88;100.00;98412.28;5054127;28;20037;-75
2023/10/21 01:56:48;;;;;;;9.63;5.20;;;;;;;10.95;100.00;98418.19;5068718;28;20081;-75
2023/10/21 01:59:14;;;;;;;9.65;4.63;;;;;;;10.96;100.00;98422.47;5060875;28;20033;-75
2023/10/21 02:01:40;;;;;;;10.02;4.47;;;;;;;10.99;100.00;98428.34;5051569;28;20391;-75
2023/10/21 02:04:06;;;;;;;13.18;5.15;;;;;;;11.02;100.00;98438.50;5052248;28;20029;-76
2023/10/21 02:06:31;;;;;;;12.52;5.55;;;;;;;11.04;100.00;98431.03;5071091;28;20029;-75
2023/10/21 02:08:56;;;;;;;9.60;4.45;;;;;;;11.07;100.00;98431.31;5050169;28;20048;-75
2023/10/21 02:11:22;;;;;;;17.77;6.88;;;;;;;11.01;100.00;98428.91;5063636;28;20150;-75
2023/10/21 02:13:48;;;;;;;8.23;4.13;;;;;;;11.08;100.00;98440.13;5071116;28;20020;-75
2023/10/21 02:16:13;;;;;;;16.27;5.57;;;;;;;11.12;100.00;98444.69;5070778;28;20028;-75
2023/10/21 02:18:38;;;;;;;9.20;4.80;;;;;;;11.10;100.00;98440.66;5054426;28;20029;-75
2023/10/21 02:21:06;;;;;;;10.38;4.70;;;;;;;11.14;100.00;98445.22;5063995;28;20032;-75
2023/10/21 02:23:31;;;;;;;13.07;6.43;;;;;;;11.13;100.00;98442.81;5070573;28;20379;-76
2023/10/21 02:26:04;;;;;;;9.85;5.45;;;;;;;11.17;100.00;98458.03;5069328;28;20021;-75
2023/10/21 02:28:29;;;;;;;10.02;4.88;;;;;;;11.19;100.00;98455.94;5051437;28;20112;-75
2023/10/21 02:30:55;;;;;;;9.07;4.75;;;;;;;11.18;100.00;98454.31;5059783;28;20104;-75
2023/10/21 02:33:22;;;;;;;11.20;4.70;;;;;;;11.22;100.00;98453.81;5033639;28;20043;-75
2023/10/21 02:35:55;;;;;;;9.65;4.57;;;;;;;11.22;100.00;98459.94;5045890;28;20024;-75
2023/10/21 02:38:22;;;;;;;11.07;5.32;;;;;;;11.26;100.00;98466.34;5070506;28;20029;-75
2023/10/21 02:40:48;;;;;;;11.40;4.38;;;;;;;11.23;100.00;98469.53;5061038;28;20086;-75
2023/10/21 02:43:14;;;;;;;11.85;4.93;;;;;;;11.29;100.00;98483.69;5067127;28;20048;-75
2023/10/21 02:45:39;;;;;;;8.35;4.93;;;;;;;11.30;100.00;98491.47;5067499;28;20450;-75
2023/10/21 02:48:05;;;;;;;10.93;4.95;;;;;;;11.21;100.00;98470.84;5057269;28;20036;-75
2023/10/21 02:50:30;;;;;;;10.75;4.50;;;;;;;11.31;100.00;98487.72;5070318;28;20035;-75
2023/10/21 02:52:55;;;;;;;10.15;4.18;;;;;;;11.29;100.00;98495.22;5058581;28;20396;-75
2023/10/21 02:55:20;;;;;;;8.55;4.13;;;;;;;11.32;100.00;98488.56;5070071;28;20067;-75
2023/10/21 02:57:46;;;;;;;10.55;4.22;;;;;;;11.31;100.00;98486.94;5070080;28;20114;-75
2023/10/21 03:00:21;;;;;;;8.40;4.40;;;;;;;11.32;100.00;98494.69;5038943;28;20070;-75
2023/10/21 03:02:48;;;;;;;8.32;4.40;;;;;;;11.31;100.00;98494.94;5062463;28;20024;-75
2023/10/21 03:05:17;;;;;;;9.68;4.15;;;;;;;11.31;100.00;98486.94;5036944;28;20103;-75
2023/10/21 03:07:43;;;;;;;11.55;4.70;;;;;;;11.25;100.00;98502.09;5050778;28;20021;-75
2023/10/21 03:10:10;;;;;;;9.30;4.28;;;;;;;11.31;100.00;98500.25;5050551;28;20102;-75
2023/10/21 03:12:35;;;;;;;7.28;4.55;;;;;;;11.34;100.00;98513.09;5061899;28;20025;-75
2023/10/21 03:15:02;;;;;;;8.85;3.88;;;;;;;11.36;100.00;98510.97;5062806;28;20045;-75
2023/10/21 03:17:28;;;;;;;8.30;4.30;;;;;;;11.37;100.00;98510.72;5039381;28;20395;-75
2023/10/21 03:19:55;;;;;;;8.98;3.90;;;;;;;11.38;100.00;98512.31;5069097;28;20021;-75
2023/10/21 03:22:21;;;;;;;6.10;3.63;;;;;;;11.36;100.00;98510.97;5063700;28;20056;-75
2023/10/21 03:24:47;;;;;;;7.80;4.32;;;;;;;11.40;100.00;98523.53;5065729;28;20782;-76
2023/10/21 03:27:15;;;;;;;10.32;4.70;;;;;;;11.42;100.00;98525.94;5064544;28;20039;-75
2023/10/21 03:29:41;;;;;;;6.75;3.88;;;;;;;11.43;100.00;98521.41;5050361;28;20029;-76
2023/10/21 03:32:07;;;;;;;9.27;3.72;;;;;;;11.45;100.00;98521.94;5055044;28;20037;-76
2023/10/21 03:34:33;;;;;;;8.70;4.45;;;;;;;11.40;100.00;98526.22;5059209;28;20115;-76
2023/10/21 03:36:59;;;;;;;8.40;4.15;;;;;;;11.40;100.00;98523.53;5052818;28;20033;-75
2023/10/21 03:39:26;;;;;;;10.05;4.13;;;;;;;11.46;100.00;98529.69;5069076;28;20073;-75
2023/10/21 03:41:51;;;;;;;7.55;4.25;;;;;;;11.47;100.00;98538.50;5053035;28;20396;-76
2023/10/21 03:44:16;;;;;;;9.27;4.15;;;;;;;11.49;100.00;98545.19;5058321;28;20039;-75
2023/10/21 03:46:42;;;;;;;12.95;4.63;;;;;;;11.46;100.00;98553.72;5062979;28;20439;-75
2023/10/21 03:49:07;;;;;;;7.88;4.00;;;;;;;11.46;100.00;98555.59;5061628;28;20073;-75
2023/10/21 03:51:33;;;;;;;10.38;3.92;;;;;;;11.47;100.00;98559.84;5059407;28;20067;-75
2023/10/21 03:53:58;;;;;;;12.20;4.18;;;;;;;11.48;100.00;98564.16;5069261;28;20025;-75
2023/10/21 03:56:24;;;;;;;7.25;3.63;;;;;;;11.49;100.00;98568.41;5059292;28;20468;-75
2023/10/21 03:58:49;;;;;;;6.65;4.53;;;;;;;11.42;100.00;98565.97;5050319;28;20158;-75
2023/10/21 04:01:15;;;;;;;10.00;5.57;;;;;;;11.48;100.00;98572.16;5062502;28;20933;-75
2023/10/21 04:03:40;;;;;;;7.70;3.47;;;;;;;11.45;100.00;98578.81;5045239;28;20067;-75
2023/10/21 04:06:08;;;;;;;10.55;3.70;;;;;;;11.47;100.00;98578.53;5049960;28;20025;-75
2023/10/21 04:08:34;;;;;;;7.72;4.10;;;;;;;11.46;100.00;98583.09;5050848;28;20045;-75
2023/10/21 04:10:59;;;;;;;8.15;3.65;;;;;;;11.45;100.00;98586.00;5059478;28;20040;-75
2023/10/21 04:13:24;;;;;;;8.65;4.20;;;;;;;11.43;100.00;98593.50;5065101;28;20039;-75
2023/10/21 04:15:50;;;;;;;6.95;3.65;;;;;;;11.48;100.00;98602.31;5054111;28;20029;-75
2023/10/21 04:18:16;;;;;;;5.60;3.40;;;;;;;11.44;100.00;98590.53;5024188;28;20428;-75
2023/10/21 04:20:42;;;;;;;9.05;3.42;;;;;;;11.52;100.00;98607.94;5049689;28;20039;-75
2023/10/21 04:23:07;;;;;;;8.63;4.78;;;;;;;11.53;100.00;98609.56;5069018;28;20069;-75
2023/10/21 04:25:33;;;;;;;10.65;3.70;;;;;;;11.54;100.00;98614.63;5055406;28;20029;-75
2023/10/21 04:27:58;;;;;;;9.18;4.10;;;;;;;11.54;100.00;98613.84;5056863;28;20036;-75
2023/10/21 04:30:25;;;;;;;6.00;3.60;;;;;;;11.58;100.00;98614.91;5054168;28;20707;-75
2023/10/21 04:32:51;;;;;;;7.13;3.05;;;;;;;11.59;100.00;98627.22;5055835;28;20028;-75
2023/10/21 04:35:17;;;;;;;7.63;4.03;;;;;;;11.65;100.00;98633.38;5065057;28;20082;-75
2023/10/21 04:37:42;;;;;;;7.70;3.55;;;;;;;11.66;100.00;98635.81;5059397;28;20064;-75
2023/10/21 04:40:08;;;;;;;7.95;4.03;;;;;;;11.67;100.00;98636.59;5049483;28;20060;-75
2023/10/21 04:42:34;;;;;;;7.60;3.70;;;;;;;11.69;100.00;98639.81;5039046;28;20125;-75
2023/10/21 04:45:00;;;;;;;8.63;3.75;;;;;;;11.66;100.00;98635.81;5058221;28;20380;-75
2023/10/21 04:47:25;;;;;;;10.23;4.10;;;;;;;11.71;100.00;98643.03;5042942;28;20111;-75
2023/10/21 04:49:51;;;;;;;7.18;3.35;;;;;;;11.73;100.00;98652.38;5065108;28;20024;-75
2023/10/21 04:52:18;;;;;;;6.30;3.20;;;;;;;11.66;100.00;98638.47;5053114;28;20025;-75
2023/10/21 04:54:44;;;;;;;9.60;3.50;;;;;;;11.71;100.00;98654.53;5055815;28;20029;-75
2023/10/21 04:57:10;;;;;;;8.45;3.60;;;;;;;11.69;100.00;98655.84;5037893;28;20032;-75
2023/10/21 04:59:38;;;;;;;6.25;4.28;;;;;;;11.70;100.00;98658.25;5036612;28;20039;-75
2023/10/21 05:02:04;;;;;;;10.27;4.95;;;;;;;11.67;100.00;98656.09;5054989;28;20079;-75
2023/10/21 05:04:30;;;;;;;6.25;3.65;;;;;;;11.71;100.00;98662.53;5050697;28;20107;-75
2023/10/21 05:06:55;;;;;;;7.88;3.90;;;;;;;11.69;100.00;98663.84;5058120;28;20052;-75
2023/10/21 05:09:21;;;;;;;5.80;2.97;;;;;;;11.67;100.00;98664.09;5057077;28;20464;-75
2023/10/21 05:11:46;;;;;;;8.98;2.97;;;;;;;11.67;100.00;98663.31;5066712;28;20029;-75
2023/10/21 05:14:12;;;;;;;8.88;3.65;;;;;;;11.65;100.00;98670.75;5036449;28;20508;-75
2023/10/21 05:16:38;;;;;;;8.07;2.90;;;;;;;11.59;100.00;98669.94;5020202;28;20071;-75
2023/10/21 05:19:04;;;;;;;9.52;3.42;;;;;;;11.62;100.00;98686.22;5063878;28;20905;-75
2023/10/21 05:21:30;;;;;;;6.10;3.65;;;;;;;11.62;100.00;98685.44;5065796;28;20043;-75
2023/10/21 05:23:56;;;;;;;7.35;3.95;;;;;;;11.53;100.00;98681.63;5056005;28;20032;-75
2023/10/21 05:26:21;;;;;;;7.18;3.15;;;;;;;11.54;100.00;98694.72;5064637;28;20036;-75
2023/10/21 05:28:48;;;;;;;8.27;3.17;;;;;;;11.57;100.00;98706.75;5049526;28;20033;-75
2023/10/21 05:31:13;;;;;;;5.30;4.18;;;;;;;11.55;100.00;98704.34;5054929;28;20024;-75
2023/10/21 05:33:40;;;;;;;9.00;3.83;;;;;;;11.56;100.00;98707.81;5060197;28;20500;-75
2023/10/21 05:36:05;;;;;;;9.38;3.50;;;;;;;11.52;100.00;98709.38;5054158;28;20082;-75
2023/10/21 05:38:30;;;;;;;4.57;3.10;;;;;;;11.52;100.00;98720.06;5058240;28;20032;-75
2023/10/21 05:40:57;;;;;;;11.10;4.45;;;;;;;11.50;100.00;98719.50;5052809;28;20461;-75
2023/10/21 05:43:22;;;;;;;6.18;4.20;;;;;;;11.47;100.00;98720.00;5064869;28;20039;-75
2023/10/21 05:45:48;;;;;;;9.63;4.43;;;;;;;11.52;100.00;98736.06;5038185;28;20025;-75
2023/10/21 05:48:13;;;;;;;10.95;5.15;;;;;;;11.53;100.00;98737.72;5069055;28;20546;-75
2023/10/21 05:50:39;;;;;;;7.82;3.95;;;;;;;11.51;100.00;98735.28;5038284;28;20190;-75
2023/10/21 05:53:04;;;;;;;7.50;4.07;;;;;;;11.51;100.00;98737.16;5059884;28;20391;-75
2023/10/21 05:55:30;;;;;;;13.82;3.95;;;;;;;11.51;100.00;98751.28;5066091;28;20040;-75
2023/10/21 05:57:55;;;;;;;26.83;6.70;;;;;;;11.54;100.00;98744.63;5068298;28;20024;-75
2023/10/21 06:00:21;;;;;;;9.52;3.70;;;;;;;11.57;100.00;98752.94;5069818;28;20511;-75
2023/10/21 06:02:47;;;;;;;11.43;4.30;;;;;;;11.52;100.00;98758.22;5063092;28;20437;-75
2023/10/21 06:05:14;;;;;;;11.90;3.80;;;;;;;11.63;100.00;98767.13;5054343;28;20356;-75
2023/10/21 06:07:40;;;;;;;7.40;3.30;;;;;;;11.60;100.00;98754.28;5066004;28;20382;-75
2023/10/21 06:10:06;;;;;;;6.80;3.08;;;;;;;11.70;100.00;98767.72;5021205;28;20056;-75
2023/10/21 06:12:32;;;;;;;5.25;3.20;;;;;;;11.75;100.00;98775.78;5057449;28;20037;-75
2023/10/21 06:14:58;;;;;;;11.23;3.25;;;;;;;11.76;100.00;98779.25;5051871;28;20103;-76
2023/10/21 06:17:23;;;;;;;7.40;3.60;;;;;;;11.81;100.00;98782.75;5059891;28;20174;-75
2023/10/21 06:19:49;;;;;;;8.02;3.97;;;;;;;11.83;100.00;98779.84;5063254;28;20154;-75
2023/10/21 06:22:14;;;;;;;15.20;5.95;;;;;;;11.87;100.00;98782.81;5062290;28;20033;-75
2023/10/21 06:24:40;;;;;;;9.55;3.95;;;;;;;11.91;100.00;98797.28;5051142;28;20056;-75
2023/10/21 06:27:07;;;;;;;5.35;3.58;;;;;;;11.94;100.00;98794.09;5054132;28;20036;-76
2023/10/21 06:29:33;;;;;;;8.30;4.40;;;;;;;11.92;100.00;98798.91;5068288;28;20029;-75
2023/10/21 06:31:58;;;;;;;9.55;4.22;;;;;;;12.02;100.00;98809.66;5045177;28;20107;-74
2023/10/21 06:34:24;;;;;;;10.18;4.85;;;;;;;12.04;100.00;98803.00;5067593;28;20612;-76
2023/10/21 06:36:49;;;;;;;8.90;3.30;;;;;;;12.06;100.00;98800.88;5063624;28;20035;-76
2023/10/21 06:39:14;;;;;;;8.05;4.22;;;;;;;12.10;100.00;98813.72;5052494;28;20032;-76
2023/10/21 06:41:40;;;;;;;22.23;4.22;;;;;;;12.11;100.00;98818.81;5054500;28;20073;-77
2023/10/21 06:44:05;;;;;;;6.88;3.05;;;;;;;12.16;100.00;98821.53;5052122;28;20033;-77
2023/10/21 06:46:32;;;;;;;6.78;3.40;;;;;;;12.19;100.00;98822.88;5057653;28;20488;-77
2023/10/21 06:48:57;;;;;;;6.22;3.53;;;;;;;12.22;100.00;98836.53;5057613;28;20036;-77
2023/10/21 06:51:23;;;;;;;6.10;3.15;;;;;;;12.25;100.00;98840.56;5060918;28;20037;-76
2023/10/21 06:53:49;;;;;;;8.13;2.75;;;;;;;12.26;100.00;98834.13;5033243;28;20037;-74
2023/10/21 06:56:14;;;;;;;7.50;3.17;;;;;;;12.33;100.00;98844.63;5050812;28;20067;-75
2023/10/21 06:58:40;;;;;;;9.27;3.97;;;;;;;12.39;100.00;98852.44;5056633;28;20036;-75
2023/10/21 07:01:07;;;;;;;9.93;3.70;;;;;;;12.37;100.00;98848.41;5069910;28;20066;-75
2023/10/21 07:03:32;;;;;;;6.20;2.90;;;;;;;12.44;100.00;98859.66;5052188;28;20584;-75
2023/10/21 07:05:58;;;;;;;7.43;3.90;;;;;;;12.47;100.00;98864.47;5052781;28;20066;-75
2023/10/21 07:08:23;;;;;;;4.10;2.50;;;;;;;12.50;100.00;98872.00;5051713;28;20036;-75
2023/10/21 07:10:49;;;;;;;6.20;1.92;;;;;;;12.53;100.00;98879.50;5035837;28;20041;-75
2023/10/21 07:13:14;;;;;;;3.58;2.33;;;;;;;12.56;100.00;98878.19;5048982;28;20039;-74
2023/10/21 07:15:40;;;;;;;7.60;2.60;;;;;;;12.58;100.00;98881.41;5069563;28;20537;-74
2023/10/21 07:18:07;;;;;;;4.78;2.03;;;;;;;12.58;100.00;98890.25;5052332;28;20435;-74
2023/10/21 07:20:33;;;;;;;5.63;2.42;;;;;;;12.58;100.00;98895.59;5050400;28;20484;-75
2023/10/21 07:22:58;;;;;;;6.28;3.28;;;;;;;12.52;100.00;98903.81;5058276;28;20041;-74
2023/10/21 07:25:24;;;;;;;5.90;2.10;;;;;;;12.55;100.00;98911.31;5049154;28;20090;-75
2023/10/21 07:27:49;;;;;;;3.42;2.00;;;;;;;12.53;100.00;98916.94;5069463;28;20125;-75
2023/10/21 07:30:15;;;;;;;4.72;1.88;;;;;;;12.50;100.00;98925.50;5053959;28;20028;-74
2023/10/21 07:32:41;;;;;;;3.88;2.15;;;;;;;12.46;100.00;98943.91;5065894;28;20047;-74
2023/10/21 07:35:07;;;;;;;4.38;2.28;;;;;;;12.45;100.00;98952.19;5057180;28;20468;-74
2023/10/21 07:37:33;;;;;;;2.67;1.67;;;;;;;12.43;100.00;98949.75;5057295;28;20036;-70
2023/10/21 07:39:58;;;;;;;4.25;2.40;;;;;;;12.43;100.00;98959.66;5039618;28;20399;-74
2023/10/21 07:42:25;;;;;;;3.60;1.50;;;;;;;12.42;100.00;98979.44;5055990;28;20048;-72
2023/10/21 07:44:51;;;;;;;2.60;1.48;;;;;;;12.41;100.00;98980.47;5060984;28;20055;-73
2023/10/21 07:47:16;;;;;;;5.65;1.48;;;;;;;12.41;100.00;98996.53;5041772;28;20055;-71
2023/10/21 07:49:42;;;;;;;1.60;1.30;;;;;;;12.40;100.00;99001.06;5046170;28;20035;-73
2023/10/21 07:52:07;;;;;;;2.58;0.90;;;;;;;12.34;100.00;99003.94;5066995;28;20040;-74
2023/10/21 07:54:32;;;;;;;0.70;0.70;;;;;;;12.40;100.00;99018.97;5063474;28;20020;-71
2023/10/21 07:56:58;;;;;;;1.23;0.82;;;;;;;12.34;100.00;99018.13;5019963;28;20043;-71
2023/10/21 07:59:27;;;;;;;2.85;1.20;;;;;;;12.38;100.00;99026.44;5041206;28;20029;-70
2023/10/21 08:01:54;;;;;;;2.38;0.90;;;;;;;12.50;100.00;99038.59;5041728;28;20514;-75
2023/10/21 08:04:19;;;;;;;2.95;1.00;;;;;;;12.54;100.00;99028.19;5058488;28;20067;-71
2023/10/21 08:06:46;;;;;;;1.00;0.80;;;;;;;12.58;100.00;99053.38;5043379;28;20425;-71
2023/10/21 08:09:14;;;;;;;1.02;0.77;;;;;;;12.60;100.00;99061.13;5056142;28;20507;-75
2023/10/21 08:11:39;;;;;;;4.97;0.80;;;;;;;12.71;100.00;99066.31;5064189;28;20100;-79
2023/10/21 08:14:05;;;;;;;2.38;0.88;;;;;;;12.81;100.00;99079.00;5053772;28;20132;-76
2023/10/21 08:16:30;;;;;;;6.20;0.80;;;;;;;12.89;100.00;99067.81;5049531;28;20294;-76
2023/10/21 08:18:58;;;;;;;2.72;0.90;;;;;;;12.94;100.00;99078.56;5040608;28;20079;-76
2023/10/21 08:21:23;;;;;;;2.17;0.73;;;;;;;12.90;100.00;99074.75;5057477;28;20032;-75
2023/10/21 08:23:49;;;;;;;1.02;0.90;;;;;;;12.98;100.00;99080.72;5054918;28;20032;-76
2023/10/21 08:26:15;;;;;;;0.75;0.70;;;;;;;13.01;100.00;99081.00;5064253;28;20056;-75
2023/10/21 08:28:41;;;;;;;2.85;1.52;;;;;;;13.05;100.00;99090.16;5046587;28;20890;-75
2023/10/21 08:31:08;;;;;;;1.00;0.93;;;;;;;13.02;100.00;99079.13;5021983;28;20078;-76
2023/10/21 08:33:33;;;;;;;1.48;0.93;;;;;;;13.07;100.00;99081.84;5025838;28;20063;-75
2023/10/21 08:35:59;;;;;;;1.40;1.05;;;;;;;13.04;100.00;99075.13;5046028;28;20378;-76
2023/10/21 08:38:25;;;;;;;1.58;0.63;;;;;;;13.12;100.00;99085.34;5055103;28;20028;-76
2023/10/21 08:40:50;;;;;;;2.20;1.02;;;;;;;13.08;100.00;99068.22;5038631;28;20101;-76
2023/10/21 08:43:17;;;;;;;1.77;0.68;;;;;;;13.24;100.00;99087.06;5054592;28;20083;-75
2023/10/21 08:45:44;;;;;;;2.15;0.70;;;;;;;13.23;100.00;99086.25;5033565;28;20025;-75
2023/10/21 08:48:11;;;;;;;2.47;0.85;;;;;;;13.30;100.00;99102.91;5042526;28;20025;-69
2023/10/21 08:50:39;;;;;;;7.07;2.00;;;;;;;13.31;100.00;99103.75;5064976;28;20032;-74
2023/10/21 08:53:11;;;;;;;0.73;0.73;;;;;;;13.40;100.00;99107.53;5065560;28;20040;-73
2023/10/21 08:55:38;;;;;;;0.70;0.47;;;;;;;13.43;100.00;99111.56;5063137;28;20089;-73
2023/10/21 08:58:03;;;;;;;1.65;1.50;;;;;;;13.47;100.00;99129.56;5057610;28;20117;-73
2023/10/21 09:00:29;;;;;;;0.40;0.40;;;;;;;13.47;100.00;99123.41;5048803;28;20131;-73
2023/10/21 09:02:55;;;;;;;2.92;0.60;;;;;;;13.38;100.00;99110.47;5061424;28;20033;-74
2023/10/21 09:05:21;;;;;;;1.67;0.73;;;;;;;13.47;100.00;99126.88;5062474;28;20040;-74
2023/10/21 09:07:48;;;;;;;2.38;0.90;;;;;;;13.52;100.00;99137.63;5055230;28;20392;-74
2023/10/21 09:10:15;;;;;;;0.50;0.50;;;;;;;13.57;100.00;99140.34;5064031;28;20117;-73
2023/10/21 09:12:41;;;;;;;3.30;1.40;;;;;;;13.64;100.00;99142.78;5056352;28;20514;-74
2023/10/21 09:15:09;;;;;;;4.45;2.25;;;;;;;13.78;100.00;99143.13;5043815;28;20037;-75
2023/10/21 09:17:46;;;;;;;2.83;0.50;;;;;;;13.92;100.00;99146.97;5060167;28;20066;-74
2023/10/21 09:20:13;;;;;;;2.17;1.02;;;;;;;14.01;100.00;99155.28;5061014;28;20050;-75
2023/10/21 09:22:44;;;;;;;0.60;0.60;;;;;;;14.00;100.00;99154.50;5065628;28;20028;-74
2023/10/21 09:25:19;;;;;;;1.00;0.52;;;;;;;13.99;100.00;99152.91;5038982;28;20032;-74
2023/10/21 09:27:55;;;;;;;3.00;0.70;;;;;;;14.01;100.00;99156.09;5053995;28;20441;-74
2023/10/21 09:30:25;;;;;;;3.08;0.98;;;;;;;13.91;100.00;99163.28;5037672;28;20439;-74
2023/10/21 09:32:51;;;;;;;0.52;0.50;;;;;;;13.82;100.00;99168.34;5048372;28;20055;-74
2023/10/21 09:35:21;;;;;;;1.70;1.08;;;;;;;13.87;100.00;99175.59;5059834;28;20037;-74
2023/10/21 09:37:48;;;;;;;0.68;0.65;;;;;;;13.86;100.00;99182.00;5069535;28;20449;-74
2023/10/21 09:40:14;;;;;;;2.35;0.77;;;;;;;13.87;100.00;99178.28;5061192;28;20088;-75
2023/10/21 09:42:42;;;;;;;1.13;0.65;;;;;;;13.87;100.00;99176.41;5046158;28;20107;-75
2023/10/21 09:45:10;;;;;;;1.48;0.73;;;;;;;13.93;100.00;99190.63;5063431;28;20051;-75
2023/10/21 09:47:41;;;;;;;1.23;0.75;;;;;;;13.89;100.00;99185.00;5059397;28;20578;-73
2023/10/21 09:50:12;;;;;;;5.18;1.25;;;;;;;13.91;100.00;99193.59;5063833;28;20111;-74
2023/10/21 09:52:44;;;;;;;0.70;0.57;;;;;;;13.90;100.00;99191.97;5060808;28;20114;-73
2023/10/21 09:55:11;;;;;;;3.58;1.48;;;;;;;13.98;100.00;99193.34;5063000;28;20056;-73
2023/10/21 09:57:37;;;;;;;3.70;0.90;;;;;;;14.02;100.00;99203.31;5063791;28;20032;-73
2023/10/21 10:00:08;;;;;;;3.67;0.80;;;;;;;14.18;100.00;99209.53;5059340;28;20541;-74
2023/10/21 10:02:37;;;;;;;0.68;0.65;;;;;;;14.23;100.00;99216.81;5064135;28;20056;-74
2023/10/21 10:05:07;;;;;;;2.38;0.95;;;;;;;14.14;100.00;99205.75;5065038;28;20017;-75
2023/10/21 10:07:36;;;;;;;1.35;0.63;;;;;;;14.18;100.00;99217.59;5058938;28;20388;-75
2023/10/21 10:10:07;;;;;;;3.70;0.80;;;;;;;14.20;100.00;99217.31;5058537;28;20123;-77
2023/10/21 10:12:46;;;;;;;2.83;1.10;;;;;;;14.17;100.00;99213.31;5059885;28;20040;-73
2023/10/21 10:15:31;;;;;;;1.10;0.90;;;;;;;14.20;100.00;99214.63;5057629;28;20368;-74
2023/10/21 10:17:57;;;;;;;0.98;0.82;;;;;;;14.15;100.00;99230.72;5063427;28;20032;-75
2023/10/21 10:20:27;;;;;;;3.03;1.00;;;;;;;14.19;100.00;99231.78;5057133;28;20028;-75
2023/10/21 10:23:07;;;;;;;9.18;2.47;;;;;;;14.20;100.00;99233.41;5031082;28;20025;-75
2023/10/21 10:25:38;;;;;;;5.32;1.65;;;;;;;14.31;100.00;99236.97;5070400;28;20028;-75
2023/10/21 10:28:07;;;;;;;4.33;1.10;;;;;;;14.46;100.00;99234.31;5052669;28;20177;-75
2023/10/21 10:30:34;;;;;;;3.85;1.20;;;;;;;14.64;100.00;99233.91;5070861;28;20020;-74
2023/10/21 10:33:12;;;;;;;3.95;1.20;;;;;;;14.74;100.00;99240.38;5070564;28;20036;-74
2023/10/21 10:35:42;;;;;;;4.80;1.20;;;;;;;14.68;100.00;99239.56;5064843;28;20028;-74
2023/10/21 10:38:28;;;;;;;3.92;0.90;;;;;;;14.68;100.00;99239.56;5062118;28;20025;-74
2023/10/21 10:41:09;;;;;;;2.95;1.10;;;;;;;14.67;100.00;99237.94;5066952;28;20025;-74
2023/10/21 10:43:38;;;;;;;3.55;1.45;;;;;;;14.72;100.00;99246.00;5051080;28;20028;-74
2023/10/21 10:46:05;;;;;;;4.00;1.05;;;;;;;14.78;100.00;99242.28;5058948;28;20029;-75
2023/10/21 10:48:31;;;;;;;2.70;1.48;;;;;;;14.76;100.00;99249.78;5057086;28;20057;-74
2023/10/21 10:51:10;;;;;;;2.53;0.68;;;;;;;14.75;100.00;99250.88;5060602;28;20052;-74
2023/10/21 10:53:36;;;;;;;1.45;0.93;;;;;;;14.80;100.00;99248.19;5070458;28;20029;-75
2023/10/21 10:56:02;;;;;;;3.08;1.00;;;;;;;14.84;100.00;99246.59;5070316;28;20086;-74
2023/10/21 10:58:27;;;;;;;2.55;0.98;;;;;;;14.87;100.00;99246.03;5063923;28;20652;-74
2023/10/21 11:00:53;;;;;;;5.10;0.98;;;;;;;14.85;100.00;99250.88;5070095;28;20032;-74
2023/10/21 11:03:27;;;;;;;5.00;0.77;;;;;;;14.77;100.00;99251.38;5070354;28;20113;-75
2023/10/21 11:05:55;;;;;;;2.28;0.65;;;;;;;14.93;100.00;99251.44;5051544;28;20029;-75
2023/10/21 11:08:21;;;;;;;5.25;0.98;;;;;;;14.86;100.00;99254.38;5039422;28;20032;-75
2023/10/21 11:10:47;;;;;;;6.63;1.10;;;;;;;14.82;100.00;99264.81;5056805;28;20060;-75
2023/10/21 11:13:13;;;;;;;4.32;0.93;;;;;;;14.67;100.00;99254.03;5052809;28;20037;-75
2023/10/21 11:15:44;;;;;;;5.20;0.85;;;;;;;14.68;100.00;99269.88;5049712;28;20036;-75
2023/10/21 11:18:10;;;;;;;2.70;0.68;;;;;;;14.58;100.00;99266.34;5070093;28;20033;-75
2023/10/21 11:20:46;;;;;;;3.63;1.10;;;;;;;14.63;100.00;99271.75;5057466;28;20029;-75
2023/10/21 11:23:12;;;;;;;8.25;1.48;;;;;;;14.71;100.00;99268.53;5064481;28;20413;-74